sensor_id;sensor_type;location;lat;lon;timestamp;P1;durP1;ratioP1;P2;durP2;ratioP2
27612;SDS011;15036;48.094;-1.690;2022-12-13T00:01:17;33.45;;;16.75;;
27612;SDS011;15036;48.094;-1.690;2022-12-13T00:03:43;31.00;;;16.50;;
27612;SDS011;15036;48.094;-1.690;2022-12-13T00:06:09;32.42;;;16.30;;
27612;SDS011;15036;48.094;-1.690;2022-12-13T00:08:35;32.53;;;17.58;;
27612;SDS011;15036;48.094;-1.690;2022-12-13T00:11:03;32.67;;;17.73;;
27612;SDS011;15036;48.094;-1.690;2022-12-13T00:13:30;33.95;;;17.77;;
27612;SDS011;15036;48.094;-1.690;2022-12-13T00:16:00;34.65;;;18.42;;
27612;SDS011;15036;48.094;-1.690;2022-12-13T00:18:29;32.20;;;17.00;;
27612;SDS011;15036;48.094;-1.690;2022-12-13T00:20:55;31.20;;;16.83;;
27612;SDS011;15036;48.094;-1.690;2022-12-13T00:23:21;33.72;;;18.33;;
27612;SDS011;15036;48.094;-1.690;2022-12-13T00:25:47;32.47;;;18.73;;
27612;SDS011;15036;48.094;-1.690;2022-12-13T00:28:13;31.33;;;16.52;;
27612;SDS011;15036;48.094;-1.690;2022-12-13T00:30:39;32.00;;;16.85;;
27612;SDS011;15036;48.094;-1.690;2022-12-13T00:33:05;33.50;;;17.02;;
27612;SDS011;15036;48.094;-1.690;2022-12-13T00:35:31;30.10;;;16.38;;
27612;SDS011;15036;48.094;-1.690;2022-12-13T00:37:57;34.20;;;18.23;;
27612;SDS011;15036;48.094;-1.690;2022-12-13T00:40:23;33.15;;;18.00;;
27612;SDS011;15036;48.094;-1.690;2022-12-13T00:42:48;34.22;;;18.55;;
27612;SDS011;15036;48.094;-1.690;2022-12-13T00:45:13;33.25;;;16.92;;
27612;SDS011;15036;48.094;-1.690;2022-12-13T00:47:39;34.47;;;18.08;;
27612;SDS011;15036;48.094;-1.690;2022-12-13T00:50:04;32.63;;;17.55;;
27612;SDS011;15036;48.094;-1.690;2022-12-13T00:52:32;30.98;;;16.45;;
27612;SDS011;15036;48.094;-1.690;2022-12-13T00:54:58;31.40;;;17.13;;
27612;SDS011;15036;48.094;-1.690;2022-12-13T00:57:23;32.70;;;17.50;;
27612;SDS011;15036;48.094;-1.690;2022-12-13T00:59:49;32.92;;;16.70;;
27612;SDS011;15036;48.094;-1.690;2022-12-13T01:02:14;34.22;;;17.70;;
27612;SDS011;15036;48.094;-1.690;2022-12-13T01:04:40;31.35;;;16.75;;
27612;SDS011;15036;48.094;-1.690;2022-12-13T01:07:05;31.58;;;16.77;;
27612;SDS011;15036;48.094;-1.690;2022-12-13T01:09:31;33.65;;;17.13;;
27612;SDS011;15036;48.094;-1.690;2022-12-13T01:11:58;31.60;;;16.38;;
27612;SDS011;15036;48.094;-1.690;2022-12-13T01:14:25;32.67;;;17.17;;
27612;SDS011;15036;48.094;-1.690;2022-12-13T01:16:51;34.25;;;17.50;;
27612;SDS011;15036;48.094;-1.690;2022-12-13T01:19:23;32.22;;;16.70;;
27612;SDS011;15036;48.094;-1.690;2022-12-13T01:21:57;36.38;;;19.02;;
27612;SDS011;15036;48.094;-1.690;2022-12-13T01:24:28;36.40;;;18.38;;
27612;SDS011;15036;48.094;-1.690;2022-12-13T01:26:55;35.13;;;18.92;;
27612;SDS011;15036;48.094;-1.690;2022-12-13T01:29:21;36.35;;;19.00;;
27612;SDS011;15036;48.094;-1.690;2022-12-13T01:31:47;34.97;;;18.45;;
27612;SDS011;15036;48.094;-1.690;2022-12-13T01:34:15;38.33;;;19.38;;
27612;SDS011;15036;48.094;-1.690;2022-12-13T01:36:43;35.17;;;18.23;;
27612;SDS011;15036;48.094;-1.690;2022-12-13T01:39:10;33.83;;;18.50;;
27612;SDS011;15036;48.094;-1.690;2022-12-13T01:41:38;37.22;;;19.00;;
27612;SDS011;15036;48.094;-1.690;2022-12-13T01:47:07;35.92;;;17.80;;
27612;SDS011;15036;48.094;-1.690;2022-12-13T01:49:33;38.53;;;20.00;;
27612;SDS011;15036;48.094;-1.690;2022-12-13T01:51:59;37.83;;;18.63;;
27612;SDS011;15036;48.094;-1.690;2022-12-13T01:54:31;37.97;;;18.98;;
27612;SDS011;15036;48.094;-1.690;2022-12-13T01:57:03;36.35;;;19.15;;
27612;SDS011;15036;48.094;-1.690;2022-12-13T01:59:33;37.30;;;18.35;;
27612;SDS011;15036;48.094;-1.690;2022-12-13T02:02:01;39.47;;;19.20;;
27612;SDS011;15036;48.094;-1.690;2022-12-13T02:04:28;39.67;;;20.45;;
27612;SDS011;15036;48.094;-1.690;2022-12-13T02:06:58;38.95;;;19.63;;
27612;SDS011;15036;48.094;-1.690;2022-12-13T02:09:24;37.03;;;19.90;;
27612;SDS011;15036;48.094;-1.690;2022-12-13T02:11:50;39.97;;;19.45;;
27612;SDS011;15036;48.094;-1.690;2022-12-13T02:14:16;38.58;;;20.58;;
27612;SDS011;15036;48.094;-1.690;2022-12-13T02:17:00;39.10;;;20.10;;
27612;SDS011;15036;48.094;-1.690;2022-12-13T02:20:05;39.97;;;19.92;;
27612;SDS011;15036;48.094;-1.690;2022-12-13T02:23:01;39.80;;;19.83;;
27612;SDS011;15036;48.094;-1.690;2022-12-13T02:25:42;40.90;;;20.60;;
27612;SDS011;15036;48.094;-1.690;2022-12-13T02:30:51;39.13;;;19.90;;
27612;SDS011;15036;48.094;-1.690;2022-12-13T02:33:31;44.47;;;21.60;;
27612;SDS011;15036;48.094;-1.690;2022-12-13T02:38:57;36.55;;;20.27;;
27612;SDS011;15036;48.094;-1.690;2022-12-13T02:46:57;41.55;;;20.80;;
27612;SDS011;15036;48.094;-1.690;2022-12-13T02:49:45;38.08;;;19.98;;
27612;SDS011;15036;48.094;-1.690;2022-12-13T02:52:14;40.10;;;21.58;;
27612;SDS011;15036;48.094;-1.690;2022-12-13T02:54:44;41.95;;;21.20;;
27612;SDS011;15036;48.094;-1.690;2022-12-13T03:10:51;39.28;;;21.55;;
27612;SDS011;15036;48.094;-1.690;2022-12-13T03:13:54;36.47;;;19.85;;
27612;SDS011;15036;48.094;-1.690;2022-12-13T03:19:08;37.35;;;20.33;;
27612;SDS011;15036;48.094;-1.690;2022-12-13T03:21:45;38.22;;;20.10;;
27612;SDS011;15036;48.094;-1.690;2022-12-13T03:27:02;37.92;;;19.98;;
27612;SDS011;15036;48.094;-1.690;2022-12-13T03:29:28;36.38;;;19.90;;
27612;SDS011;15036;48.094;-1.690;2022-12-13T03:31:53;39.55;;;20.65;;
27612;SDS011;15036;48.094;-1.690;2022-12-13T03:34:19;39.17;;;20.83;;
27612;SDS011;15036;48.094;-1.690;2022-12-13T03:36:44;38.67;;;21.13;;
27612;SDS011;15036;48.094;-1.690;2022-12-13T03:39:09;36.63;;;19.88;;
27612;SDS011;15036;48.094;-1.690;2022-12-13T03:41:35;38.80;;;20.65;;
27612;SDS011;15036;48.094;-1.690;2022-12-13T03:44:04;40.30;;;20.90;;
27612;SDS011;15036;48.094;-1.690;2022-12-13T03:48:57;35.88;;;19.95;;
27612;SDS011;15036;48.094;-1.690;2022-12-13T03:51:22;35.55;;;19.48;;
27612;SDS011;15036;48.094;-1.690;2022-12-13T03:53:48;35.83;;;18.75;;
27612;SDS011;15036;48.094;-1.690;2022-12-13T03:56:13;33.80;;;19.35;;
27612;SDS011;15036;48.094;-1.690;2022-12-13T03:58:39;33.67;;;19.75;;
27612;SDS011;15036;48.094;-1.690;2022-12-13T04:01:10;36.65;;;19.70;;
27612;SDS011;15036;48.094;-1.690;2022-12-13T04:03:52;40.63;;;21.20;;
27612;SDS011;15036;48.094;-1.690;2022-12-13T04:06:18;33.65;;;19.10;;
27612;SDS011;15036;48.094;-1.690;2022-12-13T04:08:43;37.83;;;19.60;;
27612;SDS011;15036;48.094;-1.690;2022-12-13T04:11:09;36.28;;;19.60;;
27612;SDS011;15036;48.094;-1.690;2022-12-13T04:13:53;35.17;;;19.40;;
27612;SDS011;15036;48.094;-1.690;2022-12-13T04:16:19;36.88;;;19.98;;
27612;SDS011;15036;48.094;-1.690;2022-12-13T04:18:46;34.50;;;19.25;;
27612;SDS011;15036;48.094;-1.690;2022-12-13T04:21:11;36.00;;;19.35;;
27612;SDS011;15036;48.094;-1.690;2022-12-13T04:23:36;35.15;;;19.35;;
27612;SDS011;15036;48.094;-1.690;2022-12-13T04:26:02;36.00;;;19.67;;
27612;SDS011;15036;48.094;-1.690;2022-12-13T04:28:27;35.83;;;19.27;;
27612;SDS011;15036;48.094;-1.690;2022-12-13T04:30:53;37.67;;;19.33;;
27612;SDS011;15036;48.094;-1.690;2022-12-13T04:33:18;35.30;;;18.40;;
27612;SDS011;15036;48.094;-1.690;2022-12-13T04:35:45;33.92;;;19.00;;
27612;SDS011;15036;48.094;-1.690;2022-12-13T04:38:11;31.48;;;17.10;;
27612;SDS011;15036;48.094;-1.690;2022-12-13T04:40:36;33.25;;;18.55;;
27612;SDS011;15036;48.094;-1.690;2022-12-13T04:43:02;34.67;;;20.20;;
27612;SDS011;15036;48.094;-1.690;2022-12-13T04:45:27;35.03;;;18.77;;
27612;SDS011;15036;48.094;-1.690;2022-12-13T04:47:53;33.45;;;19.02;;
27612;SDS011;15036;48.094;-1.690;2022-12-13T04:50:18;34.05;;;18.30;;
27612;SDS011;15036;48.094;-1.690;2022-12-13T04:52:43;32.22;;;18.15;;
27612;SDS011;15036;48.094;-1.690;2022-12-13T04:55:09;36.20;;;19.80;;
27612;SDS011;15036;48.094;-1.690;2022-12-13T04:57:34;35.58;;;19.60;;
27612;SDS011;15036;48.094;-1.690;2022-12-13T05:00:00;33.80;;;19.50;;
27612;SDS011;15036;48.094;-1.690;2022-12-13T05:02:25;33.60;;;18.88;;
27612;SDS011;15036;48.094;-1.690;2022-12-13T05:04:52;31.42;;;18.50;;
27612;SDS011;15036;48.094;-1.690;2022-12-13T05:07:17;31.73;;;18.35;;
27612;SDS011;15036;48.094;-1.690;2022-12-13T05:09:42;35.22;;;18.52;;
27612;SDS011;15036;48.094;-1.690;2022-12-13T05:12:08;35.28;;;19.00;;
27612;SDS011;15036;48.094;-1.690;2022-12-13T05:14:33;32.58;;;18.45;;
27612;SDS011;15036;48.094;-1.690;2022-12-13T05:16:59;32.40;;;18.10;;
27612;SDS011;15036;48.094;-1.690;2022-12-13T05:19:25;36.15;;;18.77;;
27612;SDS011;15036;48.094;-1.690;2022-12-13T05:21:51;32.28;;;18.13;;
27612;SDS011;15036;48.094;-1.690;2022-12-13T05:24:16;28.50;;;17.35;;
27612;SDS011;15036;48.094;-1.690;2022-12-13T05:26:42;34.35;;;18.42;;
27612;SDS011;15036;48.094;-1.690;2022-12-13T05:29:07;32.58;;;18.20;;
27612;SDS011;15036;48.094;-1.690;2022-12-13T05:31:33;35.03;;;18.80;;
27612;SDS011;15036;48.094;-1.690;2022-12-13T05:33:58;33.72;;;19.52;;
27612;SDS011;15036;48.094;-1.690;2022-12-13T05:36:23;32.55;;;18.52;;
27612;SDS011;15036;48.094;-1.690;2022-12-13T05:38:50;30.05;;;17.45;;
27612;SDS011;15036;48.094;-1.690;2022-12-13T05:41:16;32.70;;;18.98;;
27612;SDS011;15036;48.094;-1.690;2022-12-13T05:43:44;34.17;;;18.63;;
27612;SDS011;15036;48.094;-1.690;2022-12-13T05:46:11;34.67;;;19.08;;
27612;SDS011;15036;48.094;-1.690;2022-12-13T05:48:37;33.15;;;18.17;;
27612;SDS011;15036;48.094;-1.690;2022-12-13T05:51:02;32.65;;;18.38;;
27612;SDS011;15036;48.094;-1.690;2022-12-13T05:53:28;35.92;;;19.40;;
27612;SDS011;15036;48.094;-1.690;2022-12-13T05:55:53;33.75;;;18.73;;
27612;SDS011;15036;48.094;-1.690;2022-12-13T05:58:23;35.33;;;18.95;;
27612;SDS011;15036;48.094;-1.690;2022-12-13T06:00:49;32.15;;;18.67;;
27612;SDS011;15036;48.094;-1.690;2022-12-13T06:03:15;36.72;;;20.70;;
27612;SDS011;15036;48.094;-1.690;2022-12-13T06:05:40;34.85;;;19.65;;
27612;SDS011;15036;48.094;-1.690;2022-12-13T06:08:07;36.10;;;19.55;;
27612;SDS011;15036;48.094;-1.690;2022-12-13T06:10:33;33.20;;;18.90;;
27612;SDS011;15036;48.094;-1.690;2022-12-13T06:12:58;35.83;;;19.30;;
27612;SDS011;15036;48.094;-1.690;2022-12-13T06:15:24;34.90;;;18.85;;
27612;SDS011;15036;48.094;-1.690;2022-12-13T06:17:49;34.58;;;18.75;;
27612;SDS011;15036;48.094;-1.690;2022-12-13T06:20:15;34.17;;;18.63;;
27612;SDS011;15036;48.094;-1.690;2022-12-13T06:22:40;36.22;;;19.13;;
27612;SDS011;15036;48.094;-1.690;2022-12-13T06:25:06;31.20;;;18.52;;
27612;SDS011;15036;48.094;-1.690;2022-12-13T06:27:31;35.58;;;20.13;;
27612;SDS011;15036;48.094;-1.690;2022-12-13T06:29:57;35.30;;;19.92;;
27612;SDS011;15036;48.094;-1.690;2022-12-13T06:32:22;34.88;;;20.77;;
27612;SDS011;15036;48.094;-1.690;2022-12-13T06:34:47;36.35;;;20.50;;
27612;SDS011;15036;48.094;-1.690;2022-12-13T06:37:13;34.63;;;18.83;;
27612;SDS011;15036;48.094;-1.690;2022-12-13T06:39:39;32.92;;;18.88;;
27612;SDS011;15036;48.094;-1.690;2022-12-13T06:42:05;38.85;;;19.80;;
27612;SDS011;15036;48.094;-1.690;2022-12-13T06:44:32;35.58;;;20.08;;
27612;SDS011;15036;48.094;-1.690;2022-12-13T06:46:58;34.90;;;19.25;;
27612;SDS011;15036;48.094;-1.690;2022-12-13T06:49:25;36.65;;;19.38;;
27612;SDS011;15036;48.094;-1.690;2022-12-13T06:51:50;34.78;;;19.83;;
27612;SDS011;15036;48.094;-1.690;2022-12-13T06:54:15;32.22;;;18.42;;
27612;SDS011;15036;48.094;-1.690;2022-12-13T06:56:41;37.05;;;19.90;;
27612;SDS011;15036;48.094;-1.690;2022-12-13T06:59:06;32.67;;;19.25;;
27612;SDS011;15036;48.094;-1.690;2022-12-13T07:01:32;36.13;;;19.45;;
27612;SDS011;15036;48.094;-1.690;2022-12-13T07:03:57;35.63;;;19.42;;
27612;SDS011;15036;48.094;-1.690;2022-12-13T07:06:24;33.80;;;19.27;;
27612;SDS011;15036;48.094;-1.690;2022-12-13T07:08:53;35.05;;;19.90;;
27612;SDS011;15036;48.094;-1.690;2022-12-13T07:11:21;33.60;;;19.67;;
27612;SDS011;15036;48.094;-1.690;2022-12-13T07:13:48;40.28;;;20.85;;
27612;SDS011;15036;48.094;-1.690;2022-12-13T07:16:14;35.45;;;19.67;;
27612;SDS011;15036;48.094;-1.690;2022-12-13T07:18:40;36.33;;;19.08;;
27612;SDS011;15036;48.094;-1.690;2022-12-13T07:21:06;38.38;;;20.33;;
27612;SDS011;15036;48.094;-1.690;2022-12-13T07:23:35;34.70;;;19.08;;
27612;SDS011;15036;48.094;-1.690;2022-12-13T07:26:02;35.92;;;20.25;;
27612;SDS011;15036;48.094;-1.690;2022-12-13T07:28:28;36.70;;;19.42;;
27612;SDS011;15036;48.094;-1.690;2022-12-13T07:30:58;37.78;;;19.50;;
27612;SDS011;15036;48.094;-1.690;2022-12-13T07:33:25;36.05;;;19.70;;
27612;SDS011;15036;48.094;-1.690;2022-12-13T07:35:50;34.40;;;19.55;;
27612;SDS011;15036;48.094;-1.690;2022-12-13T07:38:23;35.88;;;19.90;;
27612;SDS011;15036;48.094;-1.690;2022-12-13T07:40:48;35.70;;;19.98;;
27612;SDS011;15036;48.094;-1.690;2022-12-13T07:43:14;37.97;;;20.15;;
27612;SDS011;15036;48.094;-1.690;2022-12-13T07:45:39;34.50;;;19.42;;
27612;SDS011;15036;48.094;-1.690;2022-12-13T07:48:05;35.40;;;19.90;;
27612;SDS011;15036;48.094;-1.690;2022-12-13T07:50:32;38.03;;;20.67;;
27612;SDS011;15036;48.094;-1.690;2022-12-13T07:53:02;35.28;;;20.02;;
27612;SDS011;15036;48.094;-1.690;2022-12-13T07:55:28;35.13;;;19.67;;
27612;SDS011;15036;48.094;-1.690;2022-12-13T07:57:54;37.10;;;20.73;;
27612;SDS011;15036;48.094;-1.690;2022-12-13T08:00:19;37.47;;;20.63;;
27612;SDS011;15036;48.094;-1.690;2022-12-13T08:02:45;35.60;;;20.05;;
27612;SDS011;15036;48.094;-1.690;2022-12-13T08:05:12;35.53;;;20.10;;
27612;SDS011;15036;48.094;-1.690;2022-12-13T08:07:38;39.28;;;21.25;;
27612;SDS011;15036;48.094;-1.690;2022-12-13T08:10:04;41.83;;;20.92;;
27612;SDS011;15036;48.094;-1.690;2022-12-13T08:12:29;39.03;;;21.13;;
27612;SDS011;15036;48.094;-1.690;2022-12-13T08:14:55;37.05;;;20.38;;
27612;SDS011;15036;48.094;-1.690;2022-12-13T08:17:20;34.42;;;19.42;;
27612;SDS011;15036;48.094;-1.690;2022-12-13T08:19:46;38.38;;;20.90;;
27612;SDS011;15036;48.094;-1.690;2022-12-13T08:22:11;36.30;;;21.35;;
27612;SDS011;15036;48.094;-1.690;2022-12-13T08:24:38;39.05;;;20.38;;
27612;SDS011;15036;48.094;-1.690;2022-12-13T08:27:04;37.78;;;20.85;;
27612;SDS011;15036;48.094;-1.690;2022-12-13T08:29:29;36.97;;;19.88;;
27612;SDS011;15036;48.094;-1.690;2022-12-13T08:31:58;39.60;;;21.00;;
27612;SDS011;15036;48.094;-1.690;2022-12-13T08:34:24;38.25;;;20.30;;
27612;SDS011;15036;48.094;-1.690;2022-12-13T08:36:49;37.50;;;19.35;;
27612;SDS011;15036;48.094;-1.690;2022-12-13T08:39:16;37.05;;;20.10;;
27612;SDS011;15036;48.094;-1.690;2022-12-13T08:41:41;35.35;;;19.92;;
27612;SDS011;15036;48.094;-1.690;2022-12-13T08:44:07;38.15;;;20.40;;
27612;SDS011;15036;48.094;-1.690;2022-12-13T08:46:32;36.70;;;19.77;;
27612;SDS011;15036;48.094;-1.690;2022-12-13T08:48:57;37.42;;;19.33;;
27612;SDS011;15036;48.094;-1.690;2022-12-13T08:51:23;35.70;;;20.23;;
27612;SDS011;15036;48.094;-1.690;2022-12-13T08:53:49;33.90;;;19.13;;
27612;SDS011;15036;48.094;-1.690;2022-12-13T08:56:15;35.20;;;19.48;;
27612;SDS011;15036;48.094;-1.690;2022-12-13T08:58:43;38.13;;;20.30;;
27612;SDS011;15036;48.094;-1.690;2022-12-13T09:01:09;34.78;;;20.08;;
27612;SDS011;15036;48.094;-1.690;2022-12-13T09:03:35;36.35;;;20.17;;
27612;SDS011;15036;48.094;-1.690;2022-12-13T09:06:05;37.28;;;19.73;;
27612;SDS011;15036;48.094;-1.690;2022-12-13T09:08:35;40.65;;;21.85;;
27612;SDS011;15036;48.094;-1.690;2022-12-13T09:11:01;36.67;;;19.70;;
27612;SDS011;15036;48.094;-1.690;2022-12-13T09:13:31;36.35;;;19.35;;
27612;SDS011;15036;48.094;-1.690;2022-12-13T09:15:58;33.08;;;19.38;;
27612;SDS011;15036;48.094;-1.690;2022-12-13T09:18:34;33.75;;;19.95;;
27612;SDS011;15036;48.094;-1.690;2022-12-13T09:21:04;33.28;;;20.13;;
27612;SDS011;15036;48.094;-1.690;2022-12-13T09:23:32;37.75;;;20.88;;
27612;SDS011;15036;48.094;-1.690;2022-12-13T09:25:59;34.67;;;19.17;;
27612;SDS011;15036;48.094;-1.690;2022-12-13T09:28:25;35.03;;;19.67;;
27612;SDS011;15036;48.094;-1.690;2022-12-13T09:30:51;37.22;;;20.13;;
27612;SDS011;15036;48.094;-1.690;2022-12-13T09:33:17;34.45;;;19.70;;
27612;SDS011;15036;48.094;-1.690;2022-12-13T09:35:42;36.40;;;19.90;;
27612;SDS011;15036;48.094;-1.690;2022-12-13T09:38:08;35.40;;;19.55;;
27612;SDS011;15036;48.094;-1.690;2022-12-13T09:40:33;34.78;;;19.75;;
27612;SDS011;15036;48.094;-1.690;2022-12-13T09:43:02;32.63;;;18.70;;
27612;SDS011;15036;48.094;-1.690;2022-12-13T09:45:29;34.33;;;18.88;;
27612;SDS011;15036;48.094;-1.690;2022-12-13T09:47:57;35.97;;;20.65;;
27612;SDS011;15036;48.094;-1.690;2022-12-13T09:50:30;32.75;;;19.33;;
27612;SDS011;15036;48.094;-1.690;2022-12-13T09:53:00;34.00;;;18.58;;
27612;SDS011;15036;48.094;-1.690;2022-12-13T09:55:33;34.17;;;18.25;;
27612;SDS011;15036;48.094;-1.690;2022-12-13T09:58:07;36.95;;;20.60;;
27612;SDS011;15036;48.094;-1.690;2022-12-13T10:00:51;36.92;;;20.85;;
27612;SDS011;15036;48.094;-1.690;2022-12-13T10:03:19;33.22;;;18.92;;
27612;SDS011;15036;48.094;-1.690;2022-12-13T10:05:58;30.05;;;17.98;;
27612;SDS011;15036;48.094;-1.690;2022-12-13T10:08:34;30.63;;;17.98;;
27612;SDS011;15036;48.094;-1.690;2022-12-13T10:11:02;33.42;;;19.13;;
27612;SDS011;15036;48.094;-1.690;2022-12-13T10:13:41;30.65;;;18.65;;
27612;SDS011;15036;48.094;-1.690;2022-12-13T10:16:15;32.00;;;17.55;;
27612;SDS011;15036;48.094;-1.690;2022-12-13T10:18:44;35.17;;;19.30;;
27612;SDS011;15036;48.094;-1.690;2022-12-13T10:24:03;31.88;;;17.75;;
27612;SDS011;15036;48.094;-1.690;2022-12-13T10:26:38;32.30;;;18.75;;
27612;SDS011;15036;48.094;-1.690;2022-12-13T10:29:03;31.63;;;18.75;;
27612;SDS011;15036;48.094;-1.690;2022-12-13T10:31:36;30.17;;;17.27;;
27612;SDS011;15036;48.094;-1.690;2022-12-13T10:34:04;30.50;;;17.58;;
27612;SDS011;15036;48.094;-1.690;2022-12-13T10:36:35;30.83;;;18.20;;
27612;SDS011;15036;48.094;-1.690;2022-12-13T10:39:05;27.55;;;16.48;;
27612;SDS011;15036;48.094;-1.690;2022-12-13T10:41:34;31.48;;;17.92;;
27612;SDS011;15036;48.094;-1.690;2022-12-13T10:46:36;28.92;;;16.85;;
27612;SDS011;15036;48.094;-1.690;2022-12-13T10:49:03;31.23;;;17.33;;
27612;SDS011;15036;48.094;-1.690;2022-12-13T10:51:41;29.40;;;16.75;;
27612;SDS011;15036;48.094;-1.690;2022-12-13T10:54:10;31.63;;;17.30;;
27612;SDS011;15036;48.094;-1.690;2022-12-13T10:56:47;28.13;;;16.85;;
27612;SDS011;15036;48.094;-1.690;2022-12-13T11:01:50;30.08;;;17.88;;
27612;SDS011;15036;48.094;-1.690;2022-12-13T11:04:29;31.25;;;17.48;;
27612;SDS011;15036;48.094;-1.690;2022-12-13T11:06:57;32.83;;;18.92;;
27612;SDS011;15036;48.094;-1.690;2022-12-13T11:09:43;32.97;;;18.77;;
27612;SDS011;15036;48.094;-1.690;2022-12-13T11:12:15;33.28;;;19.88;;
27612;SDS011;15036;48.094;-1.690;2022-12-13T11:14:49;31.23;;;17.80;;
27612;SDS011;15036;48.094;-1.690;2022-12-13T11:17:28;29.42;;;17.85;;
27612;SDS011;15036;48.094;-1.690;2022-12-13T11:19:57;30.77;;;17.98;;
27612;SDS011;15036;48.094;-1.690;2022-12-13T11:22:33;28.60;;;17.00;;
27612;SDS011;15036;48.094;-1.690;2022-12-13T11:25:02;27.67;;;16.48;;
27612;SDS011;15036;48.094;-1.690;2022-12-13T11:30:20;24.45;;;15.43;;
27612;SDS011;15036;48.094;-1.690;2022-12-13T11:40:36;23.90;;;14.88;;
27612;SDS011;15036;48.094;-1.690;2022-12-13T11:43:16;26.45;;;15.15;;
27612;SDS011;15036;48.094;-1.690;2022-12-13T11:45:54;25.50;;;14.90;;
27612;SDS011;15036;48.094;-1.690;2022-12-13T11:48:43;25.30;;;14.48;;
27612;SDS011;15036;48.094;-1.690;2022-12-13T11:51:16;22.50;;;13.75;;
27612;SDS011;15036;48.094;-1.690;2022-12-13T11:53:53;24.15;;;15.20;;
27612;SDS011;15036;48.094;-1.690;2022-12-13T11:56:21;24.60;;;14.85;;
27612;SDS011;15036;48.094;-1.690;2022-12-13T11:58:55;23.75;;;15.45;;
27612;SDS011;15036;48.094;-1.690;2022-12-13T12:01:28;23.52;;;14.68;;
27612;SDS011;15036;48.094;-1.690;2022-12-13T12:04:09;27.00;;;17.05;;
27612;SDS011;15036;48.094;-1.690;2022-12-13T12:06:53;22.15;;;14.65;;
27612;SDS011;15036;48.094;-1.690;2022-12-13T12:09:25;26.77;;;15.02;;
27612;SDS011;15036;48.094;-1.690;2022-12-13T12:11:56;23.95;;;14.13;;
27612;SDS011;15036;48.094;-1.690;2022-12-13T12:17:08;25.05;;;15.77;;
27612;SDS011;15036;48.094;-1.690;2022-12-13T12:19:38;23.63;;;14.75;;
27612;SDS011;15036;48.094;-1.690;2022-12-13T12:30:20;23.20;;;14.48;;
27612;SDS011;15036;48.094;-1.690;2022-12-13T12:32:49;25.60;;;15.38;;
27612;SDS011;15036;48.094;-1.690;2022-12-13T12:43:43;25.48;;;16.27;;
27612;SDS011;15036;48.094;-1.690;2022-12-13T12:46:39;24.00;;;15.13;;
27612;SDS011;15036;48.094;-1.690;2022-12-13T12:54:36;24.08;;;15.40;;
27612;SDS011;15036;48.094;-1.690;2022-12-13T13:02:45;25.52;;;16.88;;
27612;SDS011;15036;48.094;-1.690;2022-12-13T13:07:54;29.13;;;16.13;;
27612;SDS011;15036;48.094;-1.690;2022-12-13T13:10:25;26.08;;;16.65;;
27612;SDS011;15036;48.094;-1.690;2022-12-13T13:12:51;25.85;;;15.35;;
27612;SDS011;15036;48.094;-1.690;2022-12-13T13:17:58;25.77;;;16.02;;
27612;SDS011;15036;48.094;-1.690;2022-12-13T13:20:24;28.42;;;16.45;;
27612;SDS011;15036;48.094;-1.690;2022-12-13T13:22:51;27.90;;;17.65;;
27612;SDS011;15036;48.094;-1.690;2022-12-13T13:25:26;26.98;;;15.90;;
27612;SDS011;15036;48.094;-1.690;2022-12-13T13:28:00;23.48;;;15.27;;
27612;SDS011;15036;48.094;-1.690;2022-12-13T13:31:05;24.25;;;16.08;;
27612;SDS011;15036;48.094;-1.690;2022-12-13T13:33:45;24.10;;;15.23;;
27612;SDS011;15036;48.094;-1.690;2022-12-13T13:36:43;22.90;;;15.07;;
27612;SDS011;15036;48.094;-1.690;2022-12-13T13:39:56;25.48;;;15.88;;
27612;SDS011;15036;48.094;-1.690;2022-12-13T13:47:16;25.25;;;15.60;;
27612;SDS011;15036;48.094;-1.690;2022-12-13T14:00:34;24.20;;;15.90;;
27612;SDS011;15036;48.094;-1.690;2022-12-13T14:11:19;23.42;;;15.15;;
27612;SDS011;15036;48.094;-1.690;2022-12-13T14:14:11;24.23;;;15.10;;
27612;SDS011;15036;48.094;-1.690;2022-12-13T14:22:14;25.55;;;15.68;;
27612;SDS011;15036;48.094;-1.690;2022-12-13T14:30:10;28.17;;;14.40;;
27612;SDS011;15036;48.094;-1.690;2022-12-13T14:32:39;29.35;;;16.00;;
27612;SDS011;15036;48.094;-1.690;2022-12-13T14:35:06;24.98;;;14.90;;
27612;SDS011;15036;48.094;-1.690;2022-12-13T14:37:33;25.92;;;14.55;;
27612;SDS011;15036;48.094;-1.690;2022-12-13T14:40:21;24.05;;;14.45;;
27612;SDS011;15036;48.094;-1.690;2022-12-13T14:42:51;22.63;;;14.40;;
27612;SDS011;15036;48.094;-1.690;2022-12-13T14:47:54;25.58;;;14.30;;
27612;SDS011;15036;48.094;-1.690;2022-12-13T14:50:23;24.10;;;14.50;;
27612;SDS011;15036;48.094;-1.690;2022-12-13T14:52:50;23.02;;;14.90;;
27612;SDS011;15036;48.094;-1.690;2022-12-13T14:55:22;22.30;;;14.45;;
27612;SDS011;15036;48.094;-1.690;2022-12-13T14:57:56;22.95;;;14.32;;
27612;SDS011;15036;48.094;-1.690;2022-12-13T15:00:28;22.90;;;14.95;;
27612;SDS011;15036;48.094;-1.690;2022-12-13T15:02:57;22.27;;;14.40;;
27612;SDS011;15036;48.094;-1.690;2022-12-13T15:05:37;23.35;;;13.90;;
27612;SDS011;15036;48.094;-1.690;2022-12-13T15:08:09;22.50;;;13.88;;
27612;SDS011;15036;48.094;-1.690;2022-12-13T15:10:43;22.85;;;14.65;;
27612;SDS011;15036;48.094;-1.690;2022-12-13T15:16:06;21.75;;;14.52;;
27612;SDS011;15036;48.094;-1.690;2022-12-13T15:18:34;22.65;;;14.48;;
27612;SDS011;15036;48.094;-1.690;2022-12-13T15:21:00;21.70;;;14.52;;
27612;SDS011;15036;48.094;-1.690;2022-12-13T15:23:35;24.17;;;13.90;;
27612;SDS011;15036;48.094;-1.690;2022-12-13T15:26:08;24.05;;;15.60;;
27612;SDS011;15036;48.094;-1.690;2022-12-13T15:28:55;23.63;;;13.48;;
27612;SDS011;15036;48.094;-1.690;2022-12-13T15:31:22;24.67;;;15.00;;
27612;SDS011;15036;48.094;-1.690;2022-12-13T15:33:48;21.90;;;14.52;;
27612;SDS011;15036;48.094;-1.690;2022-12-13T15:36:26;25.30;;;15.68;;
27612;SDS011;15036;48.094;-1.690;2022-12-13T15:41:24;25.35;;;14.38;;
27612;SDS011;15036;48.094;-1.690;2022-12-13T15:43:53;23.27;;;14.05;;
27612;SDS011;15036;48.094;-1.690;2022-12-13T15:46:32;24.65;;;15.88;;
27612;SDS011;15036;48.094;-1.690;2022-12-13T15:49:02;25.25;;;14.63;;
27612;SDS011;15036;48.094;-1.690;2022-12-13T15:51:28;27.23;;;15.63;;
27612;SDS011;15036;48.094;-1.690;2022-12-13T15:54:05;24.73;;;14.77;;
27612;SDS011;15036;48.094;-1.690;2022-12-13T15:56:35;27.42;;;15.68;;
27612;SDS011;15036;48.094;-1.690;2022-12-13T15:59:03;28.58;;;16.05;;
27612;SDS011;15036;48.094;-1.690;2022-12-13T16:01:31;25.40;;;15.60;;
27612;SDS011;15036;48.094;-1.690;2022-12-13T16:03:58;25.65;;;15.55;;
27612;SDS011;15036;48.094;-1.690;2022-12-13T16:06:27;24.25;;;15.45;;
27612;SDS011;15036;48.094;-1.690;2022-12-13T16:08:55;24.65;;;15.90;;
27612;SDS011;15036;48.094;-1.690;2022-12-13T16:11:26;29.48;;;16.40;;
27612;SDS011;15036;48.094;-1.690;2022-12-13T16:13:54;28.98;;;17.30;;
27612;SDS011;15036;48.094;-1.690;2022-12-13T16:16:26;28.75;;;16.10;;
27612;SDS011;15036;48.094;-1.690;2022-12-13T16:18:54;27.25;;;16.75;;
27612;SDS011;15036;48.094;-1.690;2022-12-13T16:21:25;27.98;;;17.25;;
27612;SDS011;15036;48.094;-1.690;2022-12-13T16:23:52;25.77;;;15.95;;
27612;SDS011;15036;48.094;-1.690;2022-12-13T16:26:25;29.65;;;17.25;;
27612;SDS011;15036;48.094;-1.690;2022-12-13T16:28:52;27.88;;;17.05;;
27612;SDS011;15036;48.094;-1.690;2022-12-13T16:31:22;25.90;;;16.75;;
27612;SDS011;15036;48.094;-1.690;2022-12-13T16:33:50;26.50;;;15.75;;